sensor_id;sensor_type;location;lat;lon;timestamp;P1;durP1;ratioP1;P2;durP2;ratioP2
10731;SDS011;5417;42.686;23.244;2023-04-24T00:02:09;8.10;;;7.40;;
10731;SDS011;5417;42.686;23.244;2023-04-24T00:07:59;11.60;;;7.40;;
10731;SDS011;5417;42.686;23.244;2023-04-24T00:16:41;8.77;;;7.87;;
10731;SDS011;5417;42.686;23.244;2023-04-24T00:19:08;8.80;;;8.10;;
10731;SDS011;5417;42.686;23.244;2023-04-24T00:21:37;10.17;;;8.10;;
10731;SDS011;5417;42.686;23.244;2023-04-24T00:24:04;10.23;;;9.27;;
10731;SDS011;5417;42.686;23.244;2023-04-24T00:29:14;8.63;;;8.03;;
10731;SDS011;5417;42.686;23.244;2023-04-24T00:32:43;8.63;;;7.83;;
10731;SDS011;5417;42.686;23.244;2023-04-24T00:35:54;8.67;;;7.93;;
10731;SDS011;5417;42.686;23.244;2023-04-24T00:51:06;8.63;;;7.93;;
10731;SDS011;5417;42.686;23.244;2023-04-24T01:03:16;7.97;;;7.30;;
10731;SDS011;5417;42.686;23.244;2023-04-24T01:05:46;9.27;;;8.27;;
10731;SDS011;5417;42.686;23.244;2023-04-24T01:08:47;8.47;;;7.77;;
10731;SDS011;5417;42.686;23.244;2023-04-24T01:11:08;8.80;;;8.00;;
10731;SDS011;5417;42.686;23.244;2023-04-24T01:13:35;10.27;;;8.10;;
10731;SDS011;5417;42.686;23.244;2023-04-24T01:28:54;8.57;;;7.70;;
10731;SDS011;5417;42.686;23.244;2023-04-24T01:31:22;10.13;;;7.67;;
10731;SDS011;5417;42.686;23.244;2023-04-24T01:33:49;8.17;;;7.47;;
10731;SDS011;5417;42.686;23.244;2023-04-24T01:43:03;6.60;;;6.00;;
10731;SDS011;5417;42.686;23.244;2023-04-24T01:45:25;6.57;;;5.87;;
10731;SDS011;5417;42.686;23.244;2023-04-24T01:47:52;6.33;;;5.67;;
10731;SDS011;5417;42.686;23.244;2023-04-24T01:54:50;5.53;;;5.03;;
10731;SDS011;5417;42.686;23.244;2023-04-24T01:57:33;6.80;;;6.33;;
10731;SDS011;5417;42.686;23.244;2023-04-24T02:16:58;8.13;;;7.30;;
10731;SDS011;5417;42.686;23.244;2023-04-24T02:19:25;10.30;;;9.30;;
10731;SDS011;5417;42.686;23.244;2023-04-24T02:21:52;21.33;;;17.63;;
10731;SDS011;5417;42.686;23.244;2023-04-24T02:24:19;8.40;;;7.70;;
10731;SDS011;5417;42.686;23.244;2023-04-24T02:26:46;8.00;;;7.40;;
10731;SDS011;5417;42.686;23.244;2023-04-24T02:29:13;7.97;;;7.37;;
10731;SDS011;5417;42.686;23.244;2023-04-24T02:32:12;8.43;;;7.70;;
10731;SDS011;5417;42.686;23.244;2023-04-24T02:35:39;9.67;;;8.33;;
10731;SDS011;5417;42.686;23.244;2023-04-24T02:37:52;13.43;;;11.83;;
10731;SDS011;5417;42.686;23.244;2023-04-24T02:40:49;8.60;;;7.90;;
10731;SDS011;5417;42.686;23.244;2023-04-24T02:43:11;8.10;;;7.50;;
10731;SDS011;5417;42.686;23.244;2023-04-24T02:52:15;10.60;;;7.70;;
10731;SDS011;5417;42.686;23.244;2023-04-24T02:55:45;9.50;;;8.53;;
10731;SDS011;5417;42.686;23.244;2023-04-24T02:58:07;9.07;;;8.37;;
10731;SDS011;5417;42.686;23.244;2023-04-24T03:00:35;9.03;;;8.13;;
10731;SDS011;5417;42.686;23.244;2023-04-24T03:03:02;8.47;;;7.73;;
10731;SDS011;5417;42.686;23.244;2023-04-24T03:06:32;9.77;;;8.97;;
10731;SDS011;5417;42.686;23.244;2023-04-24T03:08:44;8.17;;;7.40;;
10731;SDS011;5417;42.686;23.244;2023-04-24T03:11:50;8.37;;;7.57;;
10731;SDS011;5417;42.686;23.244;2023-04-24T03:15:22;8.20;;;7.57;;
10731;SDS011;5417;42.686;23.244;2023-04-24T03:17:18;9.23;;;7.57;;
10731;SDS011;5417;42.686;23.244;2023-04-24T03:19:45;7.70;;;7.00;;
10731;SDS011;5417;42.686;23.244;2023-04-24T03:24:51;15.37;;;12.10;;
10731;SDS011;5417;42.686;23.244;2023-04-24T03:27:19;7.73;;;7.00;;
10731;SDS011;5417;42.686;23.244;2023-04-24T03:30:49;10.57;;;7.57;;
10731;SDS011;5417;42.686;23.244;2023-04-24T03:33:28;8.17;;;7.47;;
10731;SDS011;5417;42.686;23.244;2023-04-24T03:39:19;8.13;;;7.33;;
10731;SDS011;5417;42.686;23.244;2023-04-24T03:41:47;9.13;;;7.90;;
10731;SDS011;5417;42.686;23.244;2023-04-24T03:44:31;8.27;;;7.47;;
10731;SDS011;5417;42.686;23.244;2023-04-24T03:47:19;10.87;;;7.43;;
10731;SDS011;5417;42.686;23.244;2023-04-24T03:49:46;8.33;;;7.40;;
10731;SDS011;5417;42.686;23.244;2023-04-24T03:52:14;8.90;;;7.50;;
10731;SDS011;5417;42.686;23.244;2023-04-24T03:54:55;11.37;;;8.37;;
10731;SDS011;5417;42.686;23.244;2023-04-24T03:57:39;12.03;;;8.47;;
10731;SDS011;5417;42.686;23.244;2023-04-24T04:00:48;11.60;;;8.00;;
10731;SDS011;5417;42.686;23.244;2023-04-24T04:03:06;15.23;;;8.17;;
10731;SDS011;5417;42.686;23.244;2023-04-24T04:05:33;7.70;;;7.03;;
10731;SDS011;5417;42.686;23.244;2023-04-24T04:09:03;6.80;;;6.27;;
10731;SDS011;5417;42.686;23.244;2023-04-24T04:11:28;6.83;;;6.07;;
10731;SDS011;5417;42.686;23.244;2023-04-24T04:17:12;7.00;;;6.40;;
10731;SDS011;5417;42.686;23.244;2023-04-24T04:22:26;7.63;;;6.93;;
10731;SDS011;5417;42.686;23.244;2023-04-24T05:02:13;7.90;;;7.20;;
10731;SDS011;5417;42.686;23.244;2023-04-24T05:04:40;9.60;;;7.60;;
10731;SDS011;5417;42.686;23.244;2023-04-24T05:07:06;9.03;;;7.77;;
10731;SDS011;5417;42.686;23.244;2023-04-24T05:09:33;8.07;;;7.23;;
10731;SDS011;5417;42.686;23.244;2023-04-24T05:12:00;7.90;;;6.70;;
10731;SDS011;5417;42.686;23.244;2023-04-24T05:14:58;8.33;;;7.10;;
10731;SDS011;5417;42.686;23.244;2023-04-24T05:17:16;7.43;;;6.83;;
10731;SDS011;5417;42.686;23.244;2023-04-24T05:20:14;6.67;;;6.07;;
10731;SDS011;5417;42.686;23.244;2023-04-24T05:23:37;7.23;;;6.63;;
10731;SDS011;5417;42.686;23.244;2023-04-24T05:26:19;7.10;;;6.40;;
10731;SDS011;5417;42.686;23.244;2023-04-24T05:29:13;8.27;;;7.43;;
10731;SDS011;5417;42.686;23.244;2023-04-24T05:31:36;7.80;;;7.10;;
10731;SDS011;5417;42.686;23.244;2023-04-24T05:34:34;8.00;;;7.20;;
10731;SDS011;5417;42.686;23.244;2023-04-24T05:37:58;7.33;;;6.20;;
10731;SDS011;5417;42.686;23.244;2023-04-24T05:40:10;9.30;;;6.07;;
10731;SDS011;5417;42.686;23.244;2023-04-24T05:42:37;13.00;;;7.00;;
10731;SDS011;5417;42.686;23.244;2023-04-24T05:45:42;7.57;;;6.70;;
10731;SDS011;5417;42.686;23.244;2023-04-24T05:47:56;10.30;;;6.80;;
10731;SDS011;5417;42.686;23.244;2023-04-24T05:56:52;10.67;;;7.20;;
10731;SDS011;5417;42.686;23.244;2023-04-24T05:59:20;11.83;;;7.40;;
10731;SDS011;5417;42.686;23.244;2023-04-24T06:01:47;8.93;;;8.07;;
10731;SDS011;5417;42.686;23.244;2023-04-24T06:04:15;8.87;;;7.60;;
10731;SDS011;5417;42.686;23.244;2023-04-24T06:06:42;8.90;;;6.70;;
10731;SDS011;5417;42.686;23.244;2023-04-24T06:09:09;8.70;;;7.70;;
10731;SDS011;5417;42.686;23.244;2023-04-24T06:20:59;10.73;;;9.63;;
10731;SDS011;5417;42.686;23.244;2023-04-24T06:23:26;11.07;;;9.90;;
10731;SDS011;5417;42.686;23.244;2023-04-24T06:25:53;16.27;;;9.73;;
10731;SDS011;5417;42.686;23.244;2023-04-24T06:28:19;10.53;;;9.63;;
10731;SDS011;5417;42.686;23.244;2023-04-24T06:34:25;13.63;;;11.07;;
10731;SDS011;5417;42.686;23.244;2023-04-24T06:36:54;13.67;;;10.80;;
10731;SDS011;5417;42.686;23.244;2023-04-24T06:39:21;13.23;;;10.30;;
10731;SDS011;5417;42.686;23.244;2023-04-24T06:41:48;15.20;;;10.83;;
10731;SDS011;5417;42.686;23.244;2023-04-24T06:44:14;11.27;;;10.27;;
10731;SDS011;5417;42.686;23.244;2023-04-24T06:46:41;10.37;;;9.00;;
10731;SDS011;5417;42.686;23.244;2023-04-24T06:49:08;12.93;;;9.47;;
10731;SDS011;5417;42.686;23.244;2023-04-24T06:51:35;11.30;;;9.87;;
10731;SDS011;5417;42.686;23.244;2023-04-24T06:54:03;13.40;;;9.33;;
10731;SDS011;5417;42.686;23.244;2023-04-24T06:56:30;9.60;;;8.80;;
10731;SDS011;5417;42.686;23.244;2023-04-24T06:58:59;11.20;;;8.43;;
10731;SDS011;5417;42.686;23.244;2023-04-24T07:01:26;8.93;;;8.13;;
10731;SDS011;5417;42.686;23.244;2023-04-24T07:03:52;11.60;;;7.80;;
10731;SDS011;5417;42.686;23.244;2023-04-24T07:06:19;9.53;;;7.90;;
10731;SDS011;5417;42.686;23.244;2023-04-24T07:08:47;9.07;;;8.27;;
10731;SDS011;5417;42.686;23.244;2023-04-24T07:11:16;9.63;;;7.60;;
10731;SDS011;5417;42.686;23.244;2023-04-24T07:13:43;8.70;;;7.00;;
10731;SDS011;5417;42.686;23.244;2023-04-24T07:16:10;8.10;;;7.40;;
10731;SDS011;5417;42.686;23.244;2023-04-24T07:18:37;8.23;;;7.60;;
10731;SDS011;5417;42.686;23.244;2023-04-24T07:21:05;8.03;;;7.30;;
10731;SDS011;5417;42.686;23.244;2023-04-24T07:23:32;7.77;;;6.97;;
10731;SDS011;5417;42.686;23.244;2023-04-24T07:25:59;7.77;;;7.00;;
10731;SDS011;5417;42.686;23.244;2023-04-24T07:28:47;7.00;;;6.30;;
10731;SDS011;5417;42.686;23.244;2023-04-24T07:31:52;7.60;;;6.87;;
10731;SDS011;5417;42.686;23.244;2023-04-24T07:34:06;7.37;;;6.70;;
10731;SDS011;5417;42.686;23.244;2023-04-24T07:36:33;7.83;;;6.97;;
10731;SDS011;5417;42.686;23.244;2023-04-24T07:38:59;9.17;;;7.17;;
10731;SDS011;5417;42.686;23.244;2023-04-24T07:41:26;8.60;;;7.90;;
10731;SDS011;5417;42.686;23.244;2023-04-24T07:43:55;7.53;;;6.97;;
10731;SDS011;5417;42.686;23.244;2023-04-24T07:46:22;8.03;;;7.43;;
10731;SDS011;5417;42.686;23.244;2023-04-24T07:48:49;7.50;;;6.97;;
10731;SDS011;5417;42.686;23.244;2023-04-24T07:51:16;9.93;;;8.00;;
10731;SDS011;5417;42.686;23.244;2023-04-24T07:53:43;8.10;;;7.13;;
10731;SDS011;5417;42.686;23.244;2023-04-24T07:57:13;7.90;;;7.10;;
10731;SDS011;5417;42.686;23.244;2023-04-24T07:59:26;8.60;;;7.70;;
10731;SDS011;5417;42.686;23.244;2023-04-24T08:01:53;10.73;;;7.30;;
10731;SDS011;5417;42.686;23.244;2023-04-24T08:04:20;7.97;;;7.23;;
10731;SDS011;5417;42.686;23.244;2023-04-24T08:06:47;7.73;;;7.03;;
10731;SDS011;5417;42.686;23.244;2023-04-24T08:09:15;8.20;;;7.50;;
10731;SDS011;5417;42.686;23.244;2023-04-24T08:11:41;8.50;;;7.80;;
10731;SDS011;5417;42.686;23.244;2023-04-24T08:14:08;8.30;;;7.60;;
10731;SDS011;5417;42.686;23.244;2023-04-24T08:16:38;7.97;;;7.37;;
10731;SDS011;5417;42.686;23.244;2023-04-24T08:19:05;8.67;;;7.87;;
10731;SDS011;5417;42.686;23.244;2023-04-24T08:21:32;8.63;;;7.90;;
10731;SDS011;5417;42.686;23.244;2023-04-24T08:23:59;9.83;;;8.10;;
10731;SDS011;5417;42.686;23.244;2023-04-24T08:26:30;8.33;;;7.67;;
10731;SDS011;5417;42.686;23.244;2023-04-24T08:28:57;9.67;;;8.33;;
10731;SDS011;5417;42.686;23.244;2023-04-24T08:31:23;8.33;;;7.70;;
10731;SDS011;5417;42.686;23.244;2023-04-24T08:33:53;8.40;;;7.80;;
10731;SDS011;5417;42.686;23.244;2023-04-24T08:36:19;8.53;;;7.63;;
10731;SDS011;5417;42.686;23.244;2023-04-24T08:38:46;9.27;;;8.37;;
10731;SDS011;5417;42.686;23.244;2023-04-24T08:41:14;8.80;;;8.00;;
10731;SDS011;5417;42.686;23.244;2023-04-24T08:43:42;8.67;;;7.97;;
10731;SDS011;5417;42.686;23.244;2023-04-24T08:46:09;9.43;;;8.47;;
10731;SDS011;5417;42.686;23.244;2023-04-24T08:48:39;9.67;;;8.57;;
10731;SDS011;5417;42.686;23.244;2023-04-24T08:51:07;8.97;;;8.07;;
10731;SDS011;5417;42.686;23.244;2023-04-24T08:53:35;7.90;;;7.30;;
10731;SDS011;5417;42.686;23.244;2023-04-24T08:56:03;7.77;;;7.00;;
10731;SDS011;5417;42.686;23.244;2023-04-24T08:58:31;8.47;;;7.77;;
10731;SDS011;5417;42.686;23.244;2023-04-24T09:00:58;7.90;;;7.20;;
10731;SDS011;5417;42.686;23.244;2023-04-24T09:03:26;12.33;;;8.17;;
10731;SDS011;5417;42.686;23.244;2023-04-24T09:05:53;10.67;;;8.33;;
10731;SDS011;5417;42.686;23.244;2023-04-24T09:08:24;7.83;;;7.13;;
10731;SDS011;5417;42.686;23.244;2023-04-24T09:10:51;8.10;;;7.33;;
10731;SDS011;5417;42.686;23.244;2023-04-24T09:13:19;8.50;;;7.70;;
10731;SDS011;5417;42.686;23.244;2023-04-24T09:15:46;8.10;;;7.50;;
10731;SDS011;5417;42.686;23.244;2023-04-24T09:18:13;8.07;;;7.30;;
10731;SDS011;5417;42.686;23.244;2023-04-24T09:23:29;9.27;;;7.93;;
10731;SDS011;5417;42.686;23.244;2023-04-24T09:25:56;8.50;;;7.70;;
10731;SDS011;5417;42.686;23.244;2023-04-24T09:28:25;7.07;;;6.37;;
10731;SDS011;5417;42.686;23.244;2023-04-24T09:31:07;7.97;;;7.17;;
10731;SDS011;5417;42.686;23.244;2023-04-24T09:33:35;8.40;;;6.83;;
10731;SDS011;5417;42.686;23.244;2023-04-24T09:36:02;9.63;;;7.40;;
10731;SDS011;5417;42.686;23.244;2023-04-24T09:38:33;7.60;;;6.90;;
10731;SDS011;5417;42.686;23.244;2023-04-24T09:41:01;8.50;;;7.20;;
10731;SDS011;5417;42.686;23.244;2023-04-24T10:10:46;8.37;;;6.30;;
10731;SDS011;5417;42.686;23.244;2023-04-24T10:13:14;6.00;;;5.50;;
10731;SDS011;5417;42.686;23.244;2023-04-24T10:15:41;4.50;;;4.20;;
10731;SDS011;5417;42.686;23.244;2023-04-24T10:18:09;4.43;;;4.13;;
10731;SDS011;5417;42.686;23.244;2023-04-24T10:21:07;4.23;;;3.90;;
10731;SDS011;5417;42.686;23.244;2023-04-24T10:23:27;4.13;;;3.83;;
10731;SDS011;5417;42.686;23.244;2023-04-24T10:25:57;5.47;;;3.93;;
10731;SDS011;5417;42.686;23.244;2023-04-24T10:28:26;4.13;;;3.93;;
10731;SDS011;5417;42.686;23.244;2023-04-24T10:30:55;4.10;;;3.90;;
10731;SDS011;5417;42.686;23.244;2023-04-24T10:33:23;8.60;;;6.00;;
10731;SDS011;5417;42.686;23.244;2023-04-24T10:36:22;5.53;;;5.00;;
10731;SDS011;5417;42.686;23.244;2023-04-24T10:38:45;5.20;;;4.70;;
10731;SDS011;5417;42.686;23.244;2023-04-24T10:41:38;5.63;;;5.13;;
10731;SDS011;5417;42.686;23.244;2023-04-24T10:44:05;5.67;;;5.17;;
10731;SDS011;5417;42.686;23.244;2023-04-24T10:47:35;5.77;;;5.27;;
10731;SDS011;5417;42.686;23.244;2023-04-24T10:49:46;4.00;;;3.60;;
10731;SDS011;5417;42.686;23.244;2023-04-24T10:52:17;4.47;;;4.07;;
10731;SDS011;5417;42.686;23.244;2023-04-24T10:54:44;5.03;;;4.73;;
10731;SDS011;5417;42.686;23.244;2023-04-24T11:00:26;4.87;;;4.37;;
10731;SDS011;5417;42.686;23.244;2023-04-24T11:02:53;6.27;;;4.43;;
10731;SDS011;5417;42.686;23.244;2023-04-24T11:05:21;5.27;;;4.77;;
10731;SDS011;5417;42.686;23.244;2023-04-24T11:34:46;6.40;;;5.47;;
10731;SDS011;5417;42.686;23.244;2023-04-24T11:37:14;21.27;;;18.90;;
10731;SDS011;5417;42.686;23.244;2023-04-24T11:39:41;5.60;;;5.20;;
10731;SDS011;5417;42.686;23.244;2023-04-24T11:42:08;5.50;;;5.00;;
10731;SDS011;5417;42.686;23.244;2023-04-24T11:44:35;6.57;;;5.43;;
10731;SDS011;5417;42.686;23.244;2023-04-24T11:47:04;5.67;;;5.33;;
10731;SDS011;5417;42.686;23.244;2023-04-24T11:49:31;5.27;;;4.80;;
10731;SDS011;5417;42.686;23.244;2023-04-24T11:52:00;5.77;;;5.40;;
10731;SDS011;5417;42.686;23.244;2023-04-24T11:54:27;5.83;;;4.93;;
10731;SDS011;5417;42.686;23.244;2023-04-24T11:56:55;5.97;;;5.33;;
10731;SDS011;5417;42.686;23.244;2023-04-24T11:59:22;5.30;;;4.90;;
10731;SDS011;5417;42.686;23.244;2023-04-24T12:01:49;5.80;;;5.13;;
10731;SDS011;5417;42.686;23.244;2023-04-24T12:04:16;5.60;;;5.10;;
10731;SDS011;5417;42.686;23.244;2023-04-24T12:10:19;5.07;;;4.70;;
10731;SDS011;5417;42.686;23.244;2023-04-24T12:12:38;4.80;;;4.40;;
10731;SDS011;5417;42.686;23.244;2023-04-24T12:15:06;4.80;;;4.37;;
10731;SDS011;5417;42.686;23.244;2023-04-24T12:17:34;4.90;;;4.50;;
10731;SDS011;5417;42.686;23.244;2023-04-24T12:21:05;4.63;;;4.33;;
10731;SDS011;5417;42.686;23.244;2023-04-24T12:23:28;4.93;;;4.53;;
10731;SDS011;5417;42.686;23.244;2023-04-24T12:25:59;4.60;;;4.20;;
10731;SDS011;5417;42.686;23.244;2023-04-24T12:28:34;4.33;;;4.03;;
10731;SDS011;5417;42.686;23.244;2023-04-24T12:31:02;4.83;;;4.30;;
10731;SDS011;5417;42.686;23.244;2023-04-24T12:33:32;4.27;;;4.07;;
10731;SDS011;5417;42.686;23.244;2023-04-24T12:37:02;4.23;;;4.03;;
10731;SDS011;5417;42.686;23.244;2023-04-24T12:39:15;4.73;;;4.37;;
10731;SDS011;5417;42.686;23.244;2023-04-24T12:41:55;5.43;;;5.03;;
10731;SDS011;5417;42.686;23.244;2023-04-24T12:44:30;4.97;;;4.67;;
10731;SDS011;5417;42.686;23.244;2023-04-24T13:13:25;7.43;;;6.77;;
10731;SDS011;5417;42.686;23.244;2023-04-24T13:22:31;5.13;;;4.77;;
10731;SDS011;5417;42.686;23.244;2023-04-24T13:24:58;5.13;;;4.73;;
10731;SDS011;5417;42.686;23.244;2023-04-24T13:27:56;5.10;;;4.67;;
10731;SDS011;5417;42.686;23.244;2023-04-24T13:30:20;4.83;;;4.40;;
10731;SDS011;5417;42.686;23.244;2023-04-24T13:32:47;5.70;;;4.90;;
10731;SDS011;5417;42.686;23.244;2023-04-24T13:35:14;16.37;;;14.70;;
10731;SDS011;5417;42.686;23.244;2023-04-24T13:37:40;5.50;;;5.00;;
10731;SDS011;5417;42.686;23.244;2023-04-24T13:40:08;4.20;;;4.00;;
10731;SDS011;5417;42.686;23.244;2023-04-24T13:43:54;4.73;;;3.97;;
10731;SDS011;5417;42.686;23.244;2023-04-24T13:45:48;4.70;;;4.37;;
10731;SDS011;5417;42.686;23.244;2023-04-24T13:48:14;4.90;;;4.60;;
10731;SDS011;5417;42.686;23.244;2023-04-24T13:50:41;5.13;;;4.67;;
10731;SDS011;5417;42.686;23.244;2023-04-24T13:53:09;4.50;;;4.20;;
10731;SDS011;5417;42.686;23.244;2023-04-24T13:55:36;4.67;;;4.27;;
10731;SDS011;5417;42.686;23.244;2023-04-24T13:58:04;5.40;;;5.10;;
10731;SDS011;5417;42.686;23.244;2023-04-24T14:00:31;4.20;;;3.80;;
10731;SDS011;5417;42.686;23.244;2023-04-24T14:03:00;4.03;;;3.73;;
10731;SDS011;5417;42.686;23.244;2023-04-24T14:05:26;4.73;;;4.43;;
10731;SDS011;5417;42.686;23.244;2023-04-24T14:07:53;4.80;;;4.50;;
10731;SDS011;5417;42.686;23.244;2023-04-24T14:10:20;4.43;;;4.20;;
10731;SDS011;5417;42.686;23.244;2023-04-24T14:12:47;4.33;;;3.93;;
10731;SDS011;5417;42.686;23.244;2023-04-24T14:19:46;4.53;;;4.00;;
10731;SDS011;5417;42.686;23.244;2023-04-24T14:22:13;3.83;;;3.50;;
10731;SDS011;5417;42.686;23.244;2023-04-24T14:24:40;4.10;;;3.80;;
10731;SDS011;5417;42.686;23.244;2023-04-24T14:27:06;4.67;;;4.17;;
10731;SDS011;5417;42.686;23.244;2023-04-24T14:30:18;3.93;;;3.57;;
10731;SDS011;5417;42.686;23.244;2023-04-24T14:32:38;3.90;;;3.60;;
10731;SDS011;5417;42.686;23.244;2023-04-24T14:35:07;3.93;;;3.40;;
10731;SDS011;5417;42.686;23.244;2023-04-24T14:37:36;4.13;;;3.73;;
10731;SDS011;5417;42.686;23.244;2023-04-24T14:40:07;5.67;;;5.00;;
10731;SDS011;5417;42.686;23.244;2023-04-24T14:42:34;14.47;;;13.07;;
10731;SDS011;5417;42.686;23.244;2023-04-24T14:45:02;6.70;;;6.17;;
10731;SDS011;5417;42.686;23.244;2023-04-24T14:47:29;4.10;;;3.80;;
10731;SDS011;5417;42.686;23.244;2023-04-24T15:24:35;4.37;;;4.07;;
10731;SDS011;5417;42.686;23.244;2023-04-24T15:27:02;5.80;;;4.93;;
10731;SDS011;5417;42.686;23.244;2023-04-24T15:29:29;4.47;;;4.17;;
10731;SDS011;5417;42.686;23.244;2023-04-24T15:31:55;5.07;;;4.67;;
10731;SDS011;5417;42.686;23.244;2023-04-24T15:34:22;5.43;;;4.93;;
10731;SDS011;5417;42.686;23.244;2023-04-24T15:36:49;5.90;;;5.27;;
10731;SDS011;5417;42.686;23.244;2023-04-24T15:39:16;8.00;;;5.63;;
10731;SDS011;5417;42.686;23.244;2023-04-24T15:41:44;7.60;;;5.87;;
10731;SDS011;5417;42.686;23.244;2023-04-24T15:44:13;6.40;;;5.80;;
10731;SDS011;5417;42.686;23.244;2023-04-24T15:47:10;6.10;;;5.73;;
10731;SDS011;5417;42.686;23.244;2023-04-24T15:49:33;6.27;;;5.60;;
10731;SDS011;5417;42.686;23.244;2023-04-24T15:53:10;5.53;;;5.07;;
10731;SDS011;5417;42.686;23.244;2023-04-24T16:02:32;12.57;;;7.73;;
10731;SDS011;5417;42.686;23.244;2023-04-24T16:04:50;7.00;;;6.30;;
10731;SDS011;5417;42.686;23.244;2023-04-24T16:07:17;5.70;;;5.30;;
10731;SDS011;5417;42.686;23.244;2023-04-24T16:15:54;9.00;;;7.27;;
10731;SDS011;5417;42.686;23.244;2023-04-24T16:18:51;7.47;;;6.87;;
10731;SDS011;5417;42.686;23.244;2023-04-24T16:41:17;7.87;;;7.27;;
10731;SDS011;5417;42.686;23.244;2023-04-24T16:46:42;8.30;;;7.70;;
10731;SDS011;5417;42.686;23.244;2023-04-24T16:50:01;8.57;;;7.97;;
10731;SDS011;5417;42.686;23.244;2023-04-24T16:52:21;8.40;;;7.70;;
10731;SDS011;5417;42.686;23.244;2023-04-24T16:54:48;8.40;;;7.80;;
10731;SDS011;5417;42.686;23.244;2023-04-24T16:57:19;9.03;;;8.23;;
10731;SDS011;5417;42.686;23.244;2023-04-24T17:03:12;9.93;;;9.10;;
10731;SDS011;5417;42.686;23.244;2023-04-24T17:15:32;7.93;;;7.33;;
10731;SDS011;5417;42.686;23.244;2023-04-24T17:39:38;11.33;;;10.20;;
10731;SDS011;5417;42.686;23.244;2023-04-24T17:47:51;14.23;;;12.83;;
10731;SDS011;5417;42.686;23.244;2023-04-24T17:50:22;13.57;;;12.27;;
10731;SDS011;5417;42.686;23.244;2023-04-24T17:52:50;12.63;;;11.43;;
10731;SDS011;5417;42.686;23.244;2023-04-24T17:55:17;10.43;;;9.60;;
10731;SDS011;5417;42.686;23.244;2023-04-24T17:57:44;10.80;;;9.80;;
10731;SDS011;5417;42.686;23.244;2023-04-24T18:00:11;10.77;;;9.73;;
10731;SDS011;5417;42.686;23.244;2023-04-24T18:06:49;7.63;;;6.97;;
10731;SDS011;5417;42.686;23.244;2023-04-24T18:09:13;5.50;;;5.10;;
10731;SDS011;5417;42.686;23.244;2023-04-24T18:11:43;4.60;;;4.30;;
10731;SDS011;5417;42.686;23.244;2023-04-24T18:14:10;5.00;;;4.60;;
10731;SDS011;5417;42.686;23.244;2023-04-24T18:16:37;5.63;;;5.13;;
10731;SDS011;5417;42.686;23.244;2023-04-24T18:19:04;4.53;;;4.13;;
10731;SDS011;5417;42.686;23.244;2023-04-24T18:21:31;4.10;;;3.80;;
10731;SDS011;5417;42.686;23.244;2023-04-24T18:23:58;5.33;;;3.90;;
10731;SDS011;5417;42.686;23.244;2023-04-24T18:26:26;4.27;;;3.97;;
10731;SDS011;5417;42.686;23.244;2023-04-24T18:31:14;4.37;;;3.97;;
10731;SDS011;5417;42.686;23.244;2023-04-24T18:37:03;4.73;;;4.27;;
10731;SDS011;5417;42.686;23.244;2023-04-24T18:39:16;5.27;;;4.70;;
10731;SDS011;5417;42.686;23.244;2023-04-24T18:41:44;5.40;;;5.00;;
10731;SDS011;5417;42.686;23.244;2023-04-24T18:44:42;5.73;;;5.23;;
10731;SDS011;5417;42.686;23.244;2023-04-24T18:47:10;5.10;;;4.70;;
10731;SDS011;5417;42.686;23.244;2023-04-24T18:50:00;3.43;;;3.13;;
10731;SDS011;5417;42.686;23.244;2023-04-24T18:52:41;2.73;;;2.53;;
10731;SDS011;5417;42.686;23.244;2023-04-24T18:56:12;2.67;;;2.47;;
10731;SDS011;5417;42.686;23.244;2023-04-24T18:58:36;2.80;;;2.40;;
10731;SDS011;5417;42.686;23.244;2023-04-24T19:01:33;2.30;;;2.20;;
10731;SDS011;5417;42.686;23.244;2023-04-24T19:03:57;2.10;;;2.00;;
10731;SDS011;5417;42.686;23.244;2023-04-24T19:06:26;1.90;;;1.80;;
10731;SDS011;5417;42.686;23.244;2023-04-24T19:08:56;1.77;;;1.67;;
10731;SDS011;5417;42.686;23.244;2023-04-24T19:11:23;1.73;;;1.30;;
10731;SDS011;5417;42.686;23.244;2023-04-24T19:13:51;3.10;;;1.60;;
10731;SDS011;5417;42.686;23.244;2023-04-24T19:17:21;1.67;;;1.57;;
10731;SDS011;5417;42.686;23.244;2023-04-24T19:19:46;1.20;;;1.10;;
10731;SDS011;5417;42.686;23.244;2023-04-24T19:23:16;1.60;;;1.50;;
10731;SDS011;5417;42.686;23.244;2023-04-24T19:25:27;2.70;;;2.17;;
10731;SDS011;5417;42.686;23.244;2023-04-24T19:29:01;4.40;;;4.10;;
10731;SDS011;5417;42.686;23.244;2023-04-24T19:31:23;4.10;;;3.70;;
10731;SDS011;5417;42.686;23.244;2023-04-24T19:42:52;4.57;;;4.30;;
10731;SDS011;5417;42.686;23.244;2023-04-24T19:45:19;4.50;;;4.20;;
10731;SDS011;5417;42.686;23.244;2023-04-24T19:47:50;2.03;;;1.93;;
10731;SDS011;5417;42.686;23.244;2023-04-24T19:50:18;2.53;;;2.43;;
10731;SDS011;5417;42.686;23.244;2023-04-24T20:25:00;0.90;;;0.90;;
10731;SDS011;5417;42.686;23.244;2023-04-24T20:28:23;1.00;;;1.00;;
10731;SDS011;5417;42.686;23.244;2023-04-24T20:31:06;1.40;;;1.40;;
10731;SDS011;5417;42.686;23.244;2023-04-24T20:33:54;1.57;;;1.47;;
10731;SDS011;5417;42.686;23.244;2023-04-24T20:36:16;1.77;;;1.67;;
10731;SDS011;5417;42.686;23.244;2023-04-24T20:41:46;2.50;;;2.30;;
10731;SDS011;5417;42.686;23.244;2023-04-24T20:44:13;2.43;;;2.23;;
10731;SDS011;5417;42.686;23.244;2023-04-24T20:50:47;3.07;;;2.77;;
10731;SDS011;5417;42.686;23.244;2023-04-24T20:53:14;3.40;;;3.20;;
10731;SDS011;5417;42.686;23.244;2023-04-24T20:55:42;3.60;;;3.30;;
10731;SDS011;5417;42.686;23.244;2023-04-24T21:01:27;3.67;;;3.30;;
10731;SDS011;5417;42.686;23.244;2023-04-24T21:19:23;1.57;;;1.50;;
10731;SDS011;5417;42.686;23.244;2023-04-24T21:22:28;1.70;;;1.60;;
10731;SDS011;5417;42.686;23.244;2023-04-24T21:24:40;1.90;;;1.80;;
10731;SDS011;5417;42.686;23.244;2023-04-24T21:27:07;3.10;;;2.00;;
10731;SDS011;5417;42.686;23.244;2023-04-24T21:30:43;3.93;;;1.73;;
10731;SDS011;5417;42.686;23.244;2023-04-24T21:32:54;3.90;;;2.30;;
10731;SDS011;5417;42.686;23.244;2023-04-24T22:04:31;3.10;;;2.90;;
10731;SDS011;5417;42.686;23.244;2023-04-24T22:08:04;2.90;;;2.60;;
10731;SDS011;5417;42.686;23.244;2023-04-24T22:13:54;3.73;;;2.93;;
10731;SDS011;5417;42.686;23.244;2023-04-24T22:19:07;4.60;;;3.37;;
10731;SDS011;5417;42.686;23.244;2023-04-24T22:21:37;3.07;;;2.87;;
10731;SDS011;5417;42.686;23.244;2023-04-24T22:24:05;3.37;;;3.17;;
10731;SDS011;5417;42.686;23.244;2023-04-24T22:35:03;4.10;;;3.80;;
10731;SDS011;5417;42.686;23.244;2023-04-24T22:37:32;4.20;;;3.90;;
10731;SDS011;5417;42.686;23.244;2023-04-24T22:41:03;4.87;;;4.23;;
10731;SDS011;5417;42.686;23.244;2023-04-24T22:43:20;3.50;;;3.17;;
10731;SDS011;5417;42.686;23.244;2023-04-24T22:45:47;3.60;;;3.30;;
10731;SDS011;5417;42.686;23.244;2023-04-24T22:48:14;4.13;;;3.83;;
10731;SDS011;5417;42.686;23.244;2023-04-24T22:51:44;4.47;;;4.07;;
10731;SDS011;5417;42.686;23.244;2023-04-24T22:53:59;5.10;;;4.70;;
10731;SDS011;5417;42.686;23.244;2023-04-24T22:56:29;6.67;;;6.17;;
10731;SDS011;5417;42.686;23.244;2023-04-24T23:10:46;2.27;;;2.17;;
10731;SDS011;5417;42.686;23.244;2023-04-24T23:19:11;2.23;;;2.00;;
10731;SDS011;5417;42.686;23.244;2023-04-24T23:25:43;2.00;;;1.90;;
10731;SDS011;5417;42.686;23.244;2023-04-24T23:27:34;1.80;;;1.70;;
10731;SDS011;5417;42.686;23.244;2023-04-24T23:30:34;1.50;;;1.50;;
10731;SDS011;5417;42.686;23.244;2023-04-24T23:36:21;1.83;;;1.73;;
10731;SDS011;5417;42.686;23.244;2023-04-24T23:39:26;2.23;;;2.13;;
10731;SDS011;5417;42.686;23.244;2023-04-24T23:51:21;2.40;;;2.20;;
10731;SDS011;5417;42.686;23.244;2023-04-24T23:56:41;2.50;;;2.30;;
